createdAt,value
2018-06-19T00:00:51.322Z,3.67
2018-06-19T00:03:20.173Z,3.60
2018-06-19T00:05:49.085Z,3.23
2018-06-19T00:08:18.008Z,3.47
2018-06-19T00:10:46.705Z,3.77
2018-06-19T00:13:15.597Z,3.57
2018-06-19T00:15:44.414Z,3.20
2018-06-19T00:18:24.733Z,3.60
2018-06-19T00:20:53.912Z,3.50
2018-06-19T00:23:22.727Z,3.57
2018-06-19T00:25:51.569Z,3.63
2018-06-19T00:28:20.443Z,3.70
2018-06-19T00:30:49.436Z,3.67
2018-06-19T00:33:18.133Z,3.47
2018-06-19T00:35:46.913Z,3.33
2018-06-19T00:38:15.629Z,3.57
2018-06-19T00:40:44.462Z,3.70
2018-06-19T00:43:13.380Z,3.40
2018-06-19T00:45:42.287Z,3.57
2018-06-19T00:48:11.179Z,3.70
2018-06-19T00:50:40.259Z,3.67
2018-06-19T00:53:09.112Z,3.50
2018-06-19T00:55:38.046Z,3.87
2018-06-19T00:58:07.060Z,3.70
2018-06-19T01:00:35.856Z,3.40
2018-06-19T01:03:04.565Z,3.80
2018-06-19T01:05:33.638Z,3.70
2018-06-19T01:08:02.292Z,3.43
2018-06-19T01:10:31.035Z,4.00
2018-06-19T01:12:59.811Z,3.60
2018-06-19T01:15:28.146Z,3.80
2018-06-19T01:17:56.829Z,3.57
2018-06-19T01:20:25.739Z,3.90
2018-06-19T01:22:54.828Z,3.50
2018-06-19T01:25:23.788Z,4.10
2018-06-19T01:27:52.604Z,3.37
2018-06-19T01:30:21.290Z,3.67
2018-06-19T01:32:50.285Z,4.00
2018-06-19T01:35:19.178Z,4.50
2018-06-19T01:37:48.035Z,4.10
2018-06-19T01:40:16.989Z,4.27
2018-06-19T01:42:45.781Z,4.00
2018-06-19T01:45:14.419Z,4.40
2018-06-19T01:47:43.099Z,4.30
2018-06-19T01:50:11.747Z,4.30
2018-06-19T01:52:40.699Z,4.37
2018-06-19T01:55:09.482Z,4.30
2018-06-19T01:57:38.277Z,4.03
2018-06-19T02:00:07.169Z,4.20
2018-06-19T02:02:35.886Z,4.40
2018-06-19T02:05:04.641Z,4.47
2018-06-19T02:07:33.343Z,3.93
2018-06-19T02:10:02.065Z,4.17
2018-06-19T02:12:30.704Z,4.37
2018-06-19T02:14:59.597Z,4.37
2018-06-19T02:17:28.435Z,3.87
2018-06-19T02:19:57.268Z,4.27
2018-06-19T02:22:26.104Z,4.40
2018-06-19T02:24:54.990Z,4.33
2018-06-19T02:27:23.950Z,3.97
2018-06-19T02:29:52.643Z,4.50
2018-06-19T02:32:21.628Z,4.50
2018-06-19T02:34:50.415Z,4.37
2018-06-19T02:37:19.101Z,4.13
2018-06-19T02:39:47.841Z,4.47
2018-06-19T02:42:16.809Z,4.47
2018-06-19T02:44:45.941Z,4.40
2018-06-19T02:47:14.799Z,4.30
2018-06-19T02:49:43.892Z,4.13
2018-06-19T02:52:12.627Z,3.97
2018-06-19T02:54:41.352Z,4.50
2018-06-19T02:57:10.080Z,4.30
2018-06-19T02:59:38.917Z,4.17
2018-06-19T03:02:07.815Z,4.40
2018-06-19T03:04:36.746Z,4.63
2018-06-19T03:07:05.605Z,4.10
2018-06-19T03:09:34.784Z,4.20
2018-06-19T03:12:03.552Z,4.40
2018-06-19T03:14:32.277Z,4.00
2018-06-19T03:17:01.227Z,4.07
2018-06-19T03:19:33.027Z,3.60
2018-06-19T03:22:01.906Z,4.23
2018-06-19T03:24:30.445Z,4.07
2018-06-19T03:26:59.280Z,4.17
2018-06-19T03:29:28.220Z,4.00
2018-06-19T03:31:56.671Z,4.20
2018-06-19T03:34:25.346Z,3.90
2018-06-19T03:36:54.214Z,4.43
2018-06-19T03:39:23.125Z,3.77
2018-06-19T03:41:51.839Z,3.93
2018-06-19T03:44:20.749Z,4.23
2018-06-19T03:46:49.591Z,3.97
2018-06-19T03:49:18.532Z,4.07
2018-06-19T03:51:47.277Z,4.13
2018-06-19T03:54:16.051Z,4.10
2018-06-19T03:56:44.768Z,4.17
2018-06-19T03:59:13.534Z,4.23
2018-06-19T04:01:42.329Z,4.00
2018-06-19T04:04:11.349Z,3.90
2018-06-19T04:06:40.061Z,3.80
2018-06-19T04:09:09.133Z,3.90
2018-06-19T04:11:38.222Z,4.00
2018-06-19T04:14:06.957Z,3.90
2018-06-19T04:16:35.616Z,3.80
2018-06-19T04:19:04.296Z,3.80
2018-06-19T04:21:32.969Z,4.27
2018-06-19T04:24:02.189Z,4.20
2018-06-19T04:26:30.844Z,4.10
2018-06-19T04:28:59.764Z,3.70
2018-06-19T04:31:28.524Z,4.33
2018-06-19T04:33:57.200Z,4.30
2018-06-19T04:36:25.829Z,4.00
2018-06-19T04:38:54.512Z,4.17
2018-06-19T04:41:23.383Z,4.10
2018-06-19T04:43:52.173Z,4.03
2018-06-19T04:46:20.860Z,3.80
2018-06-19T04:48:49.538Z,4.60
2018-06-19T04:51:18.203Z,4.00
2018-06-19T04:53:47.181Z,4.40
2018-06-19T04:56:15.971Z,4.00
2018-06-19T04:58:44.914Z,4.00
2018-06-19T05:01:14.073Z,3.90
2018-06-19T05:03:42.817Z,4.03
2018-06-19T05:06:11.857Z,3.90
2018-06-19T05:08:40.783Z,3.80
2018-06-19T05:11:09.603Z,3.80
2018-06-19T05:13:40.575Z,3.97
2018-06-19T05:16:09.484Z,4.07
2018-06-19T05:18:38.388Z,3.20
2018-06-19T05:21:07.364Z,3.23
2018-06-19T05:23:36.248Z,3.00
2018-06-19T05:26:05.166Z,3.20
2018-06-19T05:28:33.939Z,2.80
2018-06-19T05:31:02.714Z,3.40
2018-06-19T05:33:31.616Z,3.20
2018-06-19T05:36:00.389Z,2.70
2018-06-19T05:38:29.184Z,3.60
2018-06-19T05:40:57.931Z,3.87
2018-06-19T05:43:26.652Z,3.57
2018-06-19T05:45:55.436Z,3.07
2018-06-19T05:48:24.235Z,3.37
2018-06-19T05:50:53.176Z,3.80
2018-06-19T05:53:21.835Z,3.73
2018-06-19T05:55:50.638Z,2.90
2018-06-19T05:58:19.499Z,2.93
2018-06-19T06:00:48.385Z,2.93
2018-06-19T06:03:17.263Z,3.00
2018-06-19T06:05:46.137Z,3.20
2018-06-19T06:08:14.981Z,3.13
2018-06-19T06:10:44.164Z,2.90
2018-06-19T06:13:13.046Z,3.07
2018-06-19T06:15:41.824Z,2.93
2018-06-19T06:18:10.433Z,3.20
2018-06-19T06:20:39.089Z,3.23
2018-06-19T06:23:07.778Z,2.80
2018-06-19T06:25:36.580Z,2.80
2018-06-19T06:28:05.710Z,2.80
2018-06-19T06:30:34.784Z,2.73
2018-06-19T06:33:03.651Z,2.97
2018-06-19T06:35:32.380Z,2.70
2018-06-19T06:38:01.243Z,2.70
2018-06-19T06:40:29.959Z,2.37
2018-06-19T06:42:59.562Z,2.90
2018-06-19T06:45:28.633Z,2.63
2018-06-19T06:47:57.341Z,2.70
2018-06-19T06:50:26.122Z,2.57
2018-06-19T06:52:54.809Z,2.67
2018-06-19T06:55:23.552Z,2.80
2018-06-19T06:57:53.134Z,2.60
2018-06-19T07:00:22.057Z,2.83
2018-06-19T07:02:50.973Z,2.90
2018-06-19T07:05:19.761Z,2.40
2018-06-19T07:07:48.524Z,2.20
2018-06-19T07:10:17.448Z,2.50
2018-06-19T07:12:46.230Z,2.40
2018-06-19T07:15:14.898Z,2.63
2018-06-19T07:17:43.708Z,2.40
2018-06-19T07:20:12.519Z,3.00
2018-06-19T07:22:41.308Z,2.60
2018-06-19T07:25:10.010Z,2.70
2018-06-19T07:27:38.627Z,2.73
2018-06-19T07:30:07.365Z,2.60
2018-06-19T07:32:36.003Z,2.53
2018-06-19T07:35:04.967Z,3.10
2018-06-19T07:37:33.734Z,2.77
2018-06-19T07:40:02.525Z,2.60
2018-06-19T07:42:31.289Z,2.57
2018-06-19T07:45:00.280Z,2.97
2018-06-19T07:47:29.068Z,2.93
2018-06-19T07:49:57.756Z,2.97
2018-06-19T07:52:26.400Z,2.90
2018-06-19T07:54:55.233Z,2.60
2018-06-19T07:57:23.909Z,3.13
2018-06-19T07:59:52.560Z,2.70
2018-06-19T08:02:21.495Z,2.53
2018-06-19T08:04:50.200Z,2.73
2018-06-19T08:07:18.987Z,3.10
2018-06-19T08:09:48.301Z,3.37
2018-06-19T08:12:16.960Z,3.10
2018-06-19T08:14:45.752Z,3.60
2018-06-19T08:17:14.516Z,3.50
2018-06-19T08:19:43.177Z,3.20
2018-06-19T08:22:12.013Z,3.70
2018-06-19T08:24:40.871Z,3.10
2018-06-19T08:27:09.577Z,3.73
2018-06-19T08:29:38.302Z,3.60
2018-06-19T08:32:07.298Z,3.77
2018-06-19T08:34:35.988Z,3.60
2018-06-19T08:37:04.744Z,3.70
2018-06-19T08:39:33.466Z,3.87
2018-06-19T08:42:02.223Z,3.90
2018-06-19T08:44:31.109Z,4.27
2018-06-19T08:46:59.848Z,3.80
2018-06-19T08:49:28.381Z,4.10
2018-06-19T08:51:57.117Z,4.30
2018-06-19T08:54:25.936Z,3.67
2018-06-19T08:56:54.644Z,3.70
2018-06-19T08:59:23.480Z,3.60
2018-06-19T09:01:52.259Z,4.00
2018-06-19T09:04:21.319Z,3.60
2018-06-19T09:06:50.342Z,3.63
2018-06-19T09:09:19.202Z,3.50
2018-06-19T09:11:47.987Z,3.63
2018-06-19T09:14:16.888Z,3.80
2018-06-19T09:16:45.645Z,4.57
2018-06-19T09:19:14.568Z,3.93
2018-06-19T09:21:43.440Z,4.27
2018-06-19T09:24:12.350Z,3.93
2018-06-19T09:26:41.444Z,3.77
2018-06-19T09:29:10.095Z,4.27
2018-06-19T09:31:39.027Z,4.13
2018-06-19T09:34:07.919Z,4.33
2018-06-19T09:36:36.561Z,4.83
2018-06-19T09:39:07.968Z,5.30
2018-06-19T09:41:36.860Z,4.37
2018-06-19T09:44:05.921Z,4.10
2018-06-19T09:46:35.543Z,4.20
2018-06-19T09:49:04.399Z,4.80
2018-06-19T09:51:33.379Z,4.80
2018-06-19T09:54:02.180Z,4.93
2018-06-19T09:56:31.043Z,4.37
2018-06-19T09:59:00.137Z,4.70
2018-06-19T10:01:28.459Z,4.83
2018-06-19T10:03:57.135Z,5.00
2018-06-19T10:06:25.914Z,4.60
2018-06-19T10:08:55.052Z,4.73
2018-06-19T10:11:23.667Z,4.93
2018-06-19T10:13:52.494Z,4.80
2018-06-19T10:16:21.445Z,4.40
2018-06-19T10:18:50.408Z,4.40
2018-06-19T10:21:19.318Z,4.60
2018-06-19T10:23:47.995Z,4.73
2018-06-19T10:26:17.289Z,4.80
2018-06-19T10:28:46.389Z,4.83
2018-06-19T10:31:15.337Z,5.20
2018-06-19T10:33:44.221Z,4.47
2018-06-19T10:36:13.680Z,4.30
2018-06-19T10:38:42.464Z,4.33
2018-06-19T10:41:11.191Z,4.27
2018-06-19T10:43:40.143Z,4.20
2018-06-19T10:46:08.931Z,4.23
2018-06-19T10:48:37.616Z,4.20
2018-06-19T10:51:06.465Z,4.77
2018-06-19T10:53:35.293Z,4.20
2018-06-19T10:56:04.291Z,4.63
2018-06-19T10:58:33.058Z,4.47
2018-06-19T11:01:01.870Z,4.40
2018-06-19T11:03:30.661Z,4.10
2018-06-19T11:06:00.097Z,4.20
2018-06-19T11:08:28.911Z,4.50
2018-06-19T11:10:57.599Z,4.33
2018-06-19T11:13:26.373Z,4.00
2018-06-19T11:15:55.142Z,3.60
2018-06-19T11:18:23.826Z,3.13
2018-06-19T11:20:52.560Z,2.90
2018-06-19T11:23:21.509Z,2.57
2018-06-19T11:25:50.299Z,3.40
2018-06-19T11:28:19.289Z,2.93
2018-06-19T11:30:48.092Z,3.00
2018-06-19T11:33:16.942Z,2.77
2018-06-19T11:35:45.793Z,3.10
2018-06-19T11:38:14.631Z,3.10
2018-06-19T11:40:43.441Z,3.08
2018-06-19T11:43:12.363Z,3.00
2018-06-19T11:45:41.062Z,3.20
2018-06-19T11:48:09.826Z,2.43
2018-06-19T11:50:38.607Z,3.30
2018-06-19T11:53:07.249Z,2.93
2018-06-19T11:55:36.092Z,3.07
2018-06-19T11:58:04.884Z,3.10
2018-06-19T12:00:33.769Z,3.00
2018-06-19T12:03:02.817Z,3.20
2018-06-19T12:05:31.494Z,3.10
2018-06-19T12:08:00.440Z,2.70
2018-06-19T12:10:29.216Z,3.12
2018-06-19T12:12:57.996Z,3.33
2018-06-19T12:15:26.993Z,2.93
2018-06-19T12:17:56.163Z,3.40
2018-06-19T12:20:24.975Z,3.10
2018-06-19T12:22:53.870Z,3.00
2018-06-19T12:25:22.616Z,3.00
2018-06-19T12:27:51.277Z,3.15
2018-06-19T12:30:20.049Z,3.35
2018-06-19T12:32:48.711Z,3.00
2018-06-19T12:35:17.386Z,3.17
2018-06-19T12:37:46.167Z,3.07
2018-06-19T12:40:14.927Z,3.40
2018-06-19T12:42:43.829Z,3.27
2018-06-19T12:45:12.879Z,2.80
2018-06-19T12:47:41.732Z,2.90
2018-06-19T12:51:29.472Z,2.80
2018-06-19T12:54:09.244Z,3.02
2018-06-19T12:56:38.218Z,2.87
2018-06-19T12:59:07.252Z,2.90
2018-06-19T13:01:36.101Z,3.10
2018-06-19T13:04:16.109Z,3.00
2018-06-19T13:06:44.878Z,3.23
2018-06-19T13:09:13.217Z,3.03
2018-06-19T13:11:41.924Z,3.20
2018-06-19T13:14:22.186Z,2.77
2018-06-19T13:17:02.239Z,2.80
2018-06-19T13:19:42.143Z,2.80
2018-06-19T13:22:10.930Z,2.60
2018-06-19T13:24:39.596Z,2.50
2018-06-19T13:27:08.240Z,2.22
2018-06-19T13:30:48.160Z,2.37
2018-06-19T13:33:16.906Z,2.37
2018-06-19T13:35:45.567Z,2.67
2018-06-19T13:38:14.157Z,2.47
2018-06-19T13:41:04.121Z,2.13
2018-06-19T13:43:44.461Z,2.20
2018-06-19T13:46:13.554Z,2.57
2018-06-19T13:48:42.756Z,2.40
2018-06-19T13:51:12.268Z,2.08
2018-06-19T13:53:41.759Z,2.47
2018-06-19T13:57:28.702Z,2.30
2018-06-19T13:59:57.860Z,2.37
2018-06-19T14:02:26.553Z,2.20
2018-06-19T14:04:55.230Z,2.33
2018-06-19T14:07:24.963Z,2.27
2018-06-19T14:10:04.924Z,2.58
2018-06-19T14:13:13.721Z,2.25
2018-06-19T14:15:48.924Z,2.67
2018-06-19T14:18:18.710Z,2.40
2018-06-19T14:20:47.439Z,2.40
2018-06-19T14:23:16.196Z,2.60
2018-06-19T14:25:44.918Z,2.65
2018-06-19T14:28:13.549Z,2.67
2018-06-19T14:30:42.154Z,2.50
2018-06-19T14:33:11.013Z,2.58
2018-06-19T14:35:39.633Z,2.37
2018-06-19T14:38:08.293Z,2.20
2018-06-19T14:40:36.999Z,2.27
2018-06-19T14:43:05.868Z,2.40
2018-06-19T14:45:34.493Z,2.55
2018-06-19T14:48:03.146Z,2.60
2018-06-19T14:50:31.786Z,2.45
2018-06-19T14:53:00.409Z,2.37
2018-06-19T14:55:29.017Z,2.20
2018-06-19T14:57:57.716Z,2.27
2018-06-19T15:00:26.405Z,1.90
2018-06-19T15:02:55.250Z,2.27
2018-06-19T15:05:23.900Z,1.98
2018-06-19T15:07:53.895Z,2.30
2018-06-19T15:10:23.168Z,2.25
2018-06-19T15:12:51.825Z,2.27
2018-06-19T15:15:20.447Z,2.15
2018-06-19T15:17:49.071Z,2.22
2018-06-19T15:20:18.144Z,2.20
2018-06-19T15:22:46.897Z,2.22
2018-06-19T15:25:15.583Z,2.50
2018-06-19T15:27:44.253Z,2.52
2018-06-19T15:30:12.934Z,2.05
2018-06-19T15:32:41.272Z,2.53
2018-06-19T15:35:09.932Z,2.40
2018-06-19T15:37:38.646Z,2.70
2018-06-19T15:40:07.288Z,2.40
2018-06-19T15:42:35.983Z,2.72
2018-06-19T15:45:05.401Z,2.55
2018-06-19T15:47:34.503Z,2.50
2018-06-19T15:50:03.316Z,2.50
2018-06-19T15:52:32.022Z,2.35
2018-06-19T15:55:00.641Z,2.45
2018-06-19T15:57:29.362Z,2.47
2018-06-19T15:59:57.920Z,2.47
2018-06-19T16:02:26.584Z,2.45
2018-06-19T16:04:55.181Z,2.55
2018-06-19T16:07:23.825Z,2.60
2018-06-19T16:09:52.480Z,2.67
2018-06-19T16:12:21.062Z,2.52
2018-06-19T16:14:49.754Z,2.83
2018-06-19T16:17:18.364Z,2.45
2018-06-19T16:19:46.968Z,2.35
2018-06-19T16:22:15.604Z,2.60
2018-06-19T16:24:44.245Z,2.80
2018-06-19T16:27:12.839Z,2.60
2018-06-19T16:29:41.540Z,2.75
2018-06-19T16:32:10.149Z,2.63
2018-06-19T16:34:38.768Z,3.20
2018-06-19T16:37:07.441Z,3.00
2018-06-19T16:39:36.141Z,2.90
2018-06-19T16:42:04.844Z,2.50
2018-06-19T16:44:33.677Z,2.37
2018-06-19T16:47:02.949Z,2.50
2018-06-19T16:49:31.611Z,2.50
2018-06-19T16:52:00.224Z,2.90
2018-06-19T16:54:28.869Z,2.47
2018-06-19T16:56:57.529Z,2.45
2018-06-19T16:59:26.309Z,2.58
2018-06-19T17:01:54.998Z,2.72
2018-06-19T17:04:23.645Z,2.60
2018-06-19T17:06:52.330Z,2.50
2018-06-19T17:09:21.464Z,2.40
2018-06-19T17:11:50.106Z,2.80
2018-06-19T17:14:18.702Z,2.95
2018-06-19T17:16:47.463Z,2.77
2018-06-19T17:19:16.136Z,3.00
2018-06-19T17:21:44.916Z,2.72
2018-06-19T17:24:13.548Z,2.80
2018-06-19T17:26:42.182Z,2.70
2018-06-19T17:29:10.850Z,2.87
2018-06-19T17:31:39.460Z,2.87
2018-06-19T17:34:08.357Z,2.50
2018-06-19T17:36:37.015Z,2.90
2018-06-19T17:39:08.686Z,3.00
2018-06-19T17:41:37.837Z,2.92
2018-06-19T17:44:06.878Z,3.00
2018-06-19T17:46:35.681Z,2.77
2018-06-19T17:49:04.368Z,2.83
2018-06-19T17:51:33.000Z,2.52
2018-06-19T17:54:01.679Z,2.27
2018-06-19T17:56:30.282Z,2.77
2018-06-19T17:58:58.877Z,2.60
2018-06-19T18:01:27.556Z,2.85
2018-06-19T18:03:56.572Z,3.02
2018-06-19T18:06:25.160Z,2.15
2018-06-19T18:08:53.849Z,2.70
2018-06-19T18:11:22.554Z,2.70
2018-06-19T18:13:50.860Z,2.70
2018-06-19T18:16:19.537Z,2.53
2018-06-19T18:18:48.195Z,2.40
2018-06-19T18:21:16.892Z,2.37
2018-06-19T18:23:45.581Z,2.43
2018-06-19T18:26:14.190Z,2.30
2018-06-19T18:28:42.848Z,2.20
2018-06-19T18:31:11.664Z,2.80
2018-06-19T18:33:40.385Z,2.30
2018-06-19T18:36:10.096Z,2.70
2018-06-19T18:38:38.784Z,2.20
2018-06-19T18:41:07.960Z,2.10
2018-06-19T18:43:37.024Z,2.00
2018-06-19T18:46:05.653Z,2.42
2018-06-19T18:48:34.324Z,2.90
2018-06-19T18:51:03.040Z,2.20
2018-06-19T18:53:31.726Z,2.10
2018-06-19T18:56:00.632Z,2.47
2018-06-19T18:58:29.357Z,2.03
2018-06-19T19:00:57.997Z,2.20
2018-06-19T19:03:26.694Z,2.20
2018-06-19T19:05:55.408Z,2.00
2018-06-19T19:08:25.958Z,2.13
2018-06-19T19:10:55.903Z,2.43
2018-06-19T19:13:25.837Z,2.10
2018-06-19T19:15:59.847Z,2.30
2018-06-19T19:18:33.803Z,2.50
2018-06-19T19:21:02.873Z,2.40
2018-06-19T19:23:31.595Z,2.60
2018-06-19T19:26:00.386Z,2.90
2018-06-19T19:28:34.578Z,2.30
2018-06-19T19:31:03.337Z,2.12
2018-06-19T19:33:31.992Z,2.20
2018-06-19T19:36:00.660Z,2.27
2018-06-19T19:38:37.160Z,2.00
2018-06-19T19:41:06.156Z,2.53
2018-06-19T19:43:34.757Z,2.20
2018-06-19T19:46:03.461Z,2.40
2018-06-19T19:48:37.524Z,2.60
2018-06-19T19:51:06.254Z,2.20
2018-06-19T19:53:34.873Z,2.40
2018-06-19T19:57:11.568Z,2.47
2018-06-19T19:59:40.451Z,2.43
2018-06-19T20:02:09.071Z,2.10
2018-06-19T20:04:37.955Z,2.50
2018-06-19T20:07:06.653Z,2.13
2018-06-19T20:09:35.523Z,2.10
2018-06-19T20:12:04.369Z,2.30
2018-06-19T20:14:33.015Z,1.98
2018-06-19T20:17:01.757Z,2.17
2018-06-19T20:19:30.634Z,2.20
2018-06-19T20:21:59.517Z,2.40
2018-06-19T20:24:28.474Z,2.03
2018-06-19T20:26:57.393Z,2.30
2018-06-19T20:29:26.267Z,2.50
2018-06-19T20:31:54.985Z,2.10
2018-06-19T20:34:23.632Z,2.20
2018-06-19T20:36:52.469Z,2.57
2018-06-19T20:39:21.242Z,2.47
2018-06-19T20:41:50.107Z,2.40
2018-06-19T20:44:18.812Z,2.67
2018-06-19T20:46:47.660Z,2.20
2018-06-19T20:49:16.323Z,2.67
2018-06-19T20:51:44.930Z,2.40
2018-06-19T20:54:13.556Z,2.67
2018-06-19T20:56:42.178Z,2.17
2018-06-19T20:59:11.033Z,2.57
2018-06-19T21:01:39.671Z,2.50
2018-06-19T21:04:08.436Z,2.70
2018-06-19T21:06:37.149Z,2.63
2018-06-19T21:09:08.132Z,2.60
2018-06-19T21:11:37.017Z,2.50
2018-06-19T21:14:05.728Z,2.80
2018-06-19T21:16:34.580Z,2.60
2018-06-19T21:19:03.345Z,2.63
2018-06-19T21:21:32.021Z,2.80
2018-06-19T21:24:00.647Z,2.73
2018-06-19T21:26:29.356Z,2.87
2018-06-19T21:28:58.057Z,2.70
2018-06-19T21:31:26.673Z,2.70
2018-06-19T21:33:55.420Z,2.73
2018-06-19T21:36:24.021Z,2.60
2018-06-19T21:38:52.361Z,3.20
2018-06-19T21:41:20.965Z,3.07
2018-06-19T21:43:49.807Z,2.73
2018-06-19T21:46:18.409Z,2.90
2018-06-19T21:48:47.296Z,3.10
2018-06-19T21:51:16.009Z,3.07
2018-06-19T21:53:44.713Z,3.00
2018-06-19T21:56:13.380Z,2.90
2018-06-19T21:58:42.068Z,3.13
2018-06-19T22:01:11.036Z,3.10
2018-06-19T22:03:39.637Z,2.87
2018-06-19T22:06:08.335Z,3.10
2018-06-19T22:08:42.331Z,3.40
2018-06-19T22:11:11.028Z,3.10
2018-06-19T22:13:39.676Z,3.10
2018-06-19T22:16:08.291Z,3.07
2018-06-19T22:18:36.948Z,3.40
2018-06-19T22:21:05.665Z,2.87
2018-06-19T22:23:34.384Z,3.07
2018-06-19T22:26:03.011Z,3.07
2018-06-19T22:28:31.731Z,3.07
2018-06-19T22:31:00.633Z,3.30
2018-06-19T22:33:29.248Z,3.60
2018-06-19T22:35:57.881Z,3.17
2018-06-19T22:38:26.571Z,3.60
2018-06-19T22:40:55.227Z,3.43
2018-06-19T22:43:23.976Z,3.13
2018-06-19T22:45:52.562Z,3.30
2018-06-19T22:48:20.816Z,3.10
2018-06-19T22:50:49.470Z,3.17
2018-06-19T22:53:18.367Z,3.20
2018-06-19T22:55:46.960Z,3.00
2018-06-19T22:58:15.567Z,3.40
2018-06-19T23:00:44.228Z,3.00
2018-06-19T23:03:12.845Z,2.80
2018-06-19T23:05:41.518Z,2.93
2018-06-19T23:08:10.318Z,2.80
2018-06-19T23:10:38.920Z,3.13
2018-06-19T23:13:07.607Z,3.17
2018-06-19T23:15:36.221Z,2.90
2018-06-19T23:18:04.833Z,2.93
2018-06-19T23:20:33.608Z,3.30
2018-06-19T23:23:02.196Z,3.20
2018-06-19T23:25:30.895Z,3.00
2018-06-19T23:27:59.559Z,3.10
2018-06-19T23:30:28.149Z,3.20
2018-06-19T23:32:56.809Z,3.10
2018-06-19T23:35:25.412Z,2.97
2018-06-19T23:37:54.080Z,3.30
2018-06-19T23:40:22.652Z,3.10
2018-06-19T23:42:51.234Z,3.30
2018-06-19T23:45:19.993Z,3.60
2018-06-19T23:47:49.489Z,3.00
2018-06-19T23:50:18.064Z,3.17
2018-06-19T23:52:46.681Z,3.00
2018-06-19T23:55:15.369Z,2.80
2018-06-19T23:57:43.951Z,3.20
